sensor_id;sensor_type;location;lat;lon;timestamp;P1;durP1;ratioP1;P2;durP2;ratioP2
82022;SDS011;71575;49.908;18.356;2024-01-16T00:00:56;9.43;;;4.15;;
82022;SDS011;71575;49.908;18.356;2024-01-16T00:04:16;7.80;;;2.80;;
82022;SDS011;71575;49.908;18.356;2024-01-16T00:07:17;8.07;;;2.95;;
82022;SDS011;71575;49.908;18.356;2024-01-16T00:10:18;7.43;;;2.45;;
82022;SDS011;71575;49.908;18.356;2024-01-16T00:13:18;9.15;;;3.67;;
82022;SDS011;71575;49.908;18.356;2024-01-16T00:16:19;8.15;;;3.33;;
82022;SDS011;71575;49.908;18.356;2024-01-16T00:19:20;7.75;;;2.85;;
82022;SDS011;71575;49.908;18.356;2024-01-16T00:22:21;7.97;;;3.05;;
82022;SDS011;71575;49.908;18.356;2024-01-16T00:25:21;9.82;;;3.25;;
82022;SDS011;71575;49.908;18.356;2024-01-16T00:28:22;8.57;;;2.95;;
82022;SDS011;71575;49.908;18.356;2024-01-16T00:31:23;8.32;;;3.72;;
82022;SDS011;71575;49.908;18.356;2024-01-16T00:34:23;8.32;;;3.10;;
82022;SDS011;71575;49.908;18.356;2024-01-16T00:37:24;9.85;;;2.95;;
82022;SDS011;71575;49.908;18.356;2024-01-16T00:40:25;7.00;;;2.40;;
82022;SDS011;71575;49.908;18.356;2024-01-16T00:43:26;8.20;;;2.90;;
82022;SDS011;71575;49.908;18.356;2024-01-16T00:46:27;7.63;;;2.80;;
82022;SDS011;71575;49.908;18.356;2024-01-16T00:49:27;7.03;;;2.67;;
82022;SDS011;71575;49.908;18.356;2024-01-16T00:52:28;7.63;;;2.70;;
82022;SDS011;71575;49.908;18.356;2024-01-16T00:55:29;8.13;;;3.45;;
82022;SDS011;71575;49.908;18.356;2024-01-16T00:58:30;7.80;;;2.97;;
82022;SDS011;71575;49.908;18.356;2024-01-16T01:01:30;8.90;;;3.33;;
82022;SDS011;71575;49.908;18.356;2024-01-16T01:04:32;8.63;;;3.00;;
82022;SDS011;71575;49.908;18.356;2024-01-16T01:07:33;7.45;;;3.63;;
82022;SDS011;71575;49.908;18.356;2024-01-16T01:10:34;7.68;;;3.08;;
82022;SDS011;71575;49.908;18.356;2024-01-16T01:13:35;8.55;;;4.70;;
82022;SDS011;71575;49.908;18.356;2024-01-16T01:16:36;6.80;;;3.10;;
82022;SDS011;71575;49.908;18.356;2024-01-16T01:19:37;9.10;;;2.92;;
82022;SDS011;71575;49.908;18.356;2024-01-16T01:22:37;8.48;;;2.67;;
82022;SDS011;71575;49.908;18.356;2024-01-16T01:25:38;8.30;;;2.90;;
82022;SDS011;71575;49.908;18.356;2024-01-16T01:28:39;6.65;;;2.50;;
82022;SDS011;71575;49.908;18.356;2024-01-16T01:31:40;8.43;;;2.90;;
82022;SDS011;71575;49.908;18.356;2024-01-16T01:34:41;8.70;;;2.63;;
82022;SDS011;71575;49.908;18.356;2024-01-16T01:37:42;7.43;;;2.42;;
82022;SDS011;71575;49.908;18.356;2024-01-16T01:40:43;7.10;;;2.35;;
82022;SDS011;71575;49.908;18.356;2024-01-16T01:43:43;7.25;;;2.55;;
82022;SDS011;71575;49.908;18.356;2024-01-16T01:46:44;7.82;;;2.55;;
82022;SDS011;71575;49.908;18.356;2024-01-16T01:49:46;7.80;;;2.67;;
82022;SDS011;71575;49.908;18.356;2024-01-16T01:52:47;8.73;;;3.38;;
82022;SDS011;71575;49.908;18.356;2024-01-16T01:55:48;8.48;;;3.17;;
82022;SDS011;71575;49.908;18.356;2024-01-16T01:58:51;7.15;;;2.63;;
82022;SDS011;71575;49.908;18.356;2024-01-16T02:01:56;6.70;;;2.45;;
82022;SDS011;71575;49.908;18.356;2024-01-16T02:04:57;8.07;;;2.60;;
82022;SDS011;71575;49.908;18.356;2024-01-16T02:07:58;7.32;;;2.05;;
82022;SDS011;71575;49.908;18.356;2024-01-16T02:10:59;7.53;;;2.33;;
82022;SDS011;71575;49.908;18.356;2024-01-16T02:13:59;7.07;;;2.25;;
82022;SDS011;71575;49.908;18.356;2024-01-16T02:17:00;6.07;;;1.98;;
82022;SDS011;71575;49.908;18.356;2024-01-16T02:20:01;7.65;;;2.47;;
82022;SDS011;71575;49.908;18.356;2024-01-16T02:23:03;7.93;;;2.47;;
82022;SDS011;71575;49.908;18.356;2024-01-16T02:26:03;7.00;;;1.83;;
82022;SDS011;71575;49.908;18.356;2024-01-16T02:29:05;6.82;;;1.95;;
82022;SDS011;71575;49.908;18.356;2024-01-16T02:32:05;7.18;;;2.35;;
82022;SDS011;71575;49.908;18.356;2024-01-16T02:35:06;6.30;;;2.25;;
82022;SDS011;71575;49.908;18.356;2024-01-16T02:38:07;7.15;;;2.28;;
82022;SDS011;71575;49.908;18.356;2024-01-16T02:41:08;8.88;;;3.30;;
82022;SDS011;71575;49.908;18.356;2024-01-16T02:44:08;7.88;;;3.97;;
82022;SDS011;71575;49.908;18.356;2024-01-16T02:50:09;6.70;;;2.10;;
82022;SDS011;71575;49.908;18.356;2024-01-16T02:53:10;6.85;;;3.28;;
82022;SDS011;71575;49.908;18.356;2024-01-16T02:56:11;7.70;;;3.20;;
82022;SDS011;71575;49.908;18.356;2024-01-16T02:59:12;8.90;;;3.13;;
82022;SDS011;71575;49.908;18.356;2024-01-16T03:02:12;8.25;;;3.28;;
82022;SDS011;71575;49.908;18.356;2024-01-16T03:05:16;9.50;;;2.90;;
82022;SDS011;71575;49.908;18.356;2024-01-16T03:08:17;8.95;;;2.30;;
82022;SDS011;71575;49.908;18.356;2024-01-16T03:11:17;7.50;;;2.88;;
82022;SDS011;71575;49.908;18.356;2024-01-16T03:14:19;8.13;;;2.40;;
82022;SDS011;71575;49.908;18.356;2024-01-16T03:17:20;7.47;;;2.95;;
82022;SDS011;71575;49.908;18.356;2024-01-16T03:20:21;8.30;;;3.15;;
82022;SDS011;71575;49.908;18.356;2024-01-16T03:23:21;7.05;;;2.67;;
82022;SDS011;71575;49.908;18.356;2024-01-16T03:26:22;6.90;;;2.47;;
82022;SDS011;71575;49.908;18.356;2024-01-16T03:29:30;7.13;;;2.67;;
82022;SDS011;71575;49.908;18.356;2024-01-16T03:32:34;6.82;;;2.58;;
82022;SDS011;71575;49.908;18.356;2024-01-16T03:35:44;6.50;;;2.50;;
82022;SDS011;71575;49.908;18.356;2024-01-16T03:41:49;6.93;;;2.22;;
82022;SDS011;71575;49.908;18.356;2024-01-16T03:44:51;5.45;;;2.05;;
82022;SDS011;71575;49.908;18.356;2024-01-16T03:47:51;6.85;;;2.53;;
82022;SDS011;71575;49.908;18.356;2024-01-16T03:50:52;5.85;;;2.17;;
82022;SDS011;71575;49.908;18.356;2024-01-16T03:56:53;6.50;;;1.95;;
82022;SDS011;71575;49.908;18.356;2024-01-16T03:59:54;7.18;;;2.92;;
82022;SDS011;71575;49.908;18.356;2024-01-16T04:02:54;6.13;;;2.45;;
82022;SDS011;71575;49.908;18.356;2024-01-16T04:05:55;6.38;;;1.90;;
82022;SDS011;71575;49.908;18.356;2024-01-16T04:08:56;7.30;;;2.97;;
82022;SDS011;71575;49.908;18.356;2024-01-16T04:11:57;7.95;;;3.30;;
82022;SDS011;71575;49.908;18.356;2024-01-16T04:14:57;8.48;;;3.20;;
82022;SDS011;71575;49.908;18.356;2024-01-16T04:17:58;7.32;;;2.05;;
82022;SDS011;71575;49.908;18.356;2024-01-16T04:21:01;7.47;;;2.28;;
82022;SDS011;71575;49.908;18.356;2024-01-16T04:24:02;6.20;;;1.65;;
82022;SDS011;71575;49.908;18.356;2024-01-16T04:27:02;5.22;;;1.45;;
82022;SDS011;71575;49.908;18.356;2024-01-16T04:30:04;6.05;;;0.95;;
82022;SDS011;71575;49.908;18.356;2024-01-16T04:33:05;3.10;;;0.40;;
82022;SDS011;71575;49.908;18.356;2024-01-16T04:36:06;3.17;;;0.55;;
82022;SDS011;71575;49.908;18.356;2024-01-16T04:39:07;5.00;;;0.50;;
82022;SDS011;71575;49.908;18.356;2024-01-16T04:42:08;3.40;;;0.60;;
82022;SDS011;71575;49.908;18.356;2024-01-16T04:48:10;3.20;;;0.82;;
82022;SDS011;71575;49.908;18.356;2024-01-16T04:51:10;3.80;;;0.38;;
82022;SDS011;71575;49.908;18.356;2024-01-16T04:54:11;2.72;;;0.40;;
82022;SDS011;71575;49.908;18.356;2024-01-16T04:57:12;3.70;;;0.88;;
82022;SDS011;71575;49.908;18.356;2024-01-16T05:00:13;3.90;;;0.75;;
82022;SDS011;71575;49.908;18.356;2024-01-16T05:03:14;2.75;;;0.45;;
82022;SDS011;71575;49.908;18.356;2024-01-16T05:06:15;4.05;;;0.63;;
82022;SDS011;71575;49.908;18.356;2024-01-16T05:09:16;3.22;;;0.50;;
82022;SDS011;71575;49.908;18.356;2024-01-16T05:12:16;3.85;;;0.55;;
82022;SDS011;71575;49.908;18.356;2024-01-16T05:15:18;3.33;;;0.52;;
82022;SDS011;71575;49.908;18.356;2024-01-16T05:18:19;5.32;;;1.40;;
82022;SDS011;71575;49.908;18.356;2024-01-16T05:21:20;4.72;;;1.52;;
82022;SDS011;71575;49.908;18.356;2024-01-16T05:24:21;4.15;;;1.33;;
82022;SDS011;71575;49.908;18.356;2024-01-16T05:27:22;5.47;;;1.23;;
82022;SDS011;71575;49.908;18.356;2024-01-16T05:30:23;4.68;;;0.98;;
82022;SDS011;71575;49.908;18.356;2024-01-16T05:33:23;6.13;;;1.55;;
82022;SDS011;71575;49.908;18.356;2024-01-16T05:36:26;6.32;;;1.20;;
82022;SDS011;71575;49.908;18.356;2024-01-16T05:39:26;5.25;;;1.52;;
82022;SDS011;71575;49.908;18.356;2024-01-16T05:42:27;7.20;;;1.15;;
82022;SDS011;71575;49.908;18.356;2024-01-16T05:45:28;4.80;;;0.93;;
82022;SDS011;71575;49.908;18.356;2024-01-16T05:48:29;7.22;;;1.17;;
82022;SDS011;71575;49.908;18.356;2024-01-16T05:51:29;5.75;;;0.98;;
82022;SDS011;71575;49.908;18.356;2024-01-16T05:54:30;5.32;;;1.60;;
82022;SDS011;71575;49.908;18.356;2024-01-16T05:57:31;6.40;;;2.10;;
82022;SDS011;71575;49.908;18.356;2024-01-16T06:00:31;6.47;;;2.35;;
82022;SDS011;71575;49.908;18.356;2024-01-16T06:03:32;5.47;;;1.40;;
82022;SDS011;71575;49.908;18.356;2024-01-16T06:06:33;4.57;;;1.40;;
82022;SDS011;71575;49.908;18.356;2024-01-16T06:09:38;4.47;;;1.30;;
82022;SDS011;71575;49.908;18.356;2024-01-16T06:12:39;5.38;;;0.90;;
82022;SDS011;71575;49.908;18.356;2024-01-16T06:18:41;6.15;;;2.40;;
82022;SDS011;71575;49.908;18.356;2024-01-16T06:21:41;5.43;;;0.93;;
82022;SDS011;71575;49.908;18.356;2024-01-16T06:24:42;5.57;;;0.98;;
82022;SDS011;71575;49.908;18.356;2024-01-16T06:27:43;4.30;;;2.55;;
82022;SDS011;71575;49.908;18.356;2024-01-16T06:30:44;4.60;;;0.55;;
82022;SDS011;71575;49.908;18.356;2024-01-16T06:33:45;6.53;;;1.23;;
82022;SDS011;71575;49.908;18.356;2024-01-16T06:36:46;4.95;;;1.33;;
82022;SDS011;71575;49.908;18.356;2024-01-16T06:39:46;4.82;;;1.13;;
82022;SDS011;71575;49.908;18.356;2024-01-16T06:42:47;5.45;;;1.60;;
82022;SDS011;71575;49.908;18.356;2024-01-16T06:45:48;5.53;;;1.00;;
82022;SDS011;71575;49.908;18.356;2024-01-16T06:48:49;5.90;;;1.30;;
82022;SDS011;71575;49.908;18.356;2024-01-16T06:51:50;5.50;;;1.38;;
82022;SDS011;71575;49.908;18.356;2024-01-16T06:54:51;4.40;;;1.63;;
82022;SDS011;71575;49.908;18.356;2024-01-16T06:57:51;6.75;;;1.67;;
82022;SDS011;71575;49.908;18.356;2024-01-16T07:00:52;7.30;;;1.85;;
82022;SDS011;71575;49.908;18.356;2024-01-16T07:03:54;8.38;;;1.83;;
82022;SDS011;71575;49.908;18.356;2024-01-16T07:06:55;6.10;;;1.67;;
82022;SDS011;71575;49.908;18.356;2024-01-16T07:09:57;6.90;;;1.88;;
82022;SDS011;71575;49.908;18.356;2024-01-16T07:12:58;6.10;;;0.98;;
82022;SDS011;71575;49.908;18.356;2024-01-16T07:15:58;5.80;;;1.48;;
82022;SDS011;71575;49.908;18.356;2024-01-16T07:18:59;4.95;;;1.48;;
82022;SDS011;71575;49.908;18.356;2024-01-16T07:22:04;6.97;;;2.45;;
82022;SDS011;71575;49.908;18.356;2024-01-16T07:25:06;6.63;;;2.17;;
82022;SDS011;71575;49.908;18.356;2024-01-16T07:28:07;5.20;;;1.60;;
82022;SDS011;71575;49.908;18.356;2024-01-16T07:31:08;6.38;;;2.22;;
82022;SDS011;71575;49.908;18.356;2024-01-16T07:34:08;5.55;;;1.90;;
82022;SDS011;71575;49.908;18.356;2024-01-16T07:37:09;7.63;;;2.35;;
82022;SDS011;71575;49.908;18.356;2024-01-16T07:40:10;6.88;;;2.25;;
82022;SDS011;71575;49.908;18.356;2024-01-16T07:43:11;9.13;;;3.10;;
82022;SDS011;71575;49.908;18.356;2024-01-16T07:46:11;7.05;;;2.10;;
82022;SDS011;71575;49.908;18.356;2024-01-16T07:49:12;7.10;;;2.50;;
82022;SDS011;71575;49.908;18.356;2024-01-16T07:52:13;5.82;;;2.72;;
82022;SDS011;71575;49.908;18.356;2024-01-16T07:55:14;6.68;;;1.48;;
82022;SDS011;71575;49.908;18.356;2024-01-16T07:58:14;5.05;;;1.48;;
82022;SDS011;71575;49.908;18.356;2024-01-16T08:01:15;5.97;;;1.58;;
82022;SDS011;71575;49.908;18.356;2024-01-16T08:04:16;4.78;;;1.25;;
82022;SDS011;71575;49.908;18.356;2024-01-16T08:07:17;4.50;;;1.02;;
82022;SDS011;71575;49.908;18.356;2024-01-16T08:10:17;5.18;;;2.75;;
82022;SDS011;71575;49.908;18.356;2024-01-16T08:13:19;4.22;;;1.00;;
82022;SDS011;71575;49.908;18.356;2024-01-16T08:16:20;5.85;;;1.17;;
82022;SDS011;71575;49.908;18.356;2024-01-16T08:19:21;5.47;;;1.38;;
82022;SDS011;71575;49.908;18.356;2024-01-16T08:22:21;6.20;;;1.60;;
82022;SDS011;71575;49.908;18.356;2024-01-16T08:25:22;4.85;;;1.17;;
82022;SDS011;71575;49.908;18.356;2024-01-16T08:28:22;5.28;;;0.73;;
82022;SDS011;71575;49.908;18.356;2024-01-16T08:31:23;4.57;;;0.50;;
82022;SDS011;71575;49.908;18.356;2024-01-16T08:34:27;3.42;;;0.52;;
82022;SDS011;71575;49.908;18.356;2024-01-16T08:37:27;5.40;;;0.82;;
82022;SDS011;71575;49.908;18.356;2024-01-16T08:40:29;4.00;;;0.75;;
82022;SDS011;71575;49.908;18.356;2024-01-16T08:43:29;4.45;;;1.02;;
82022;SDS011;71575;49.908;18.356;2024-01-16T08:46:30;6.15;;;0.85;;
82022;SDS011;71575;49.908;18.356;2024-01-16T08:49:31;5.80;;;2.22;;
82022;SDS011;71575;49.908;18.356;2024-01-16T08:52:36;5.40;;;0.75;;
82022;SDS011;71575;49.908;18.356;2024-01-16T08:55:40;5.40;;;1.50;;
82022;SDS011;71575;49.908;18.356;2024-01-16T08:58:45;4.43;;;0.73;;
82022;SDS011;71575;49.908;18.356;2024-01-16T09:01:46;5.10;;;1.13;;
82022;SDS011;71575;49.908;18.356;2024-01-16T09:04:47;4.93;;;1.35;;
82022;SDS011;71575;49.908;18.356;2024-01-16T09:07:48;4.93;;;1.20;;
82022;SDS011;71575;49.908;18.356;2024-01-16T09:10:49;4.70;;;2.45;;
82022;SDS011;71575;49.908;18.356;2024-01-16T09:13:50;4.43;;;1.23;;
82022;SDS011;71575;49.908;18.356;2024-01-16T09:16:50;6.13;;;1.70;;
82022;SDS011;71575;49.908;18.356;2024-01-16T09:19:51;6.30;;;2.90;;
82022;SDS011;71575;49.908;18.356;2024-01-16T09:22:52;6.15;;;1.75;;
82022;SDS011;71575;49.908;18.356;2024-01-16T09:25:53;6.03;;;1.92;;
82022;SDS011;71575;49.908;18.356;2024-01-16T09:28:53;4.57;;;1.65;;
82022;SDS011;71575;49.908;18.356;2024-01-16T09:32:03;5.72;;;1.85;;
82022;SDS011;71575;49.908;18.356;2024-01-16T09:35:05;6.43;;;1.73;;
82022;SDS011;71575;49.908;18.356;2024-01-16T09:38:07;5.50;;;1.63;;
82022;SDS011;71575;49.908;18.356;2024-01-16T09:41:10;7.38;;;2.10;;
82022;SDS011;71575;49.908;18.356;2024-01-16T09:44:11;5.78;;;1.73;;
82022;SDS011;71575;49.908;18.356;2024-01-16T09:47:11;6.13;;;1.20;;
82022;SDS011;71575;49.908;18.356;2024-01-16T09:50:13;6.80;;;1.25;;
82022;SDS011;71575;49.908;18.356;2024-01-16T09:53:14;4.93;;;0.70;;
82022;SDS011;71575;49.908;18.356;2024-01-16T09:56:15;5.07;;;0.85;;
82022;SDS011;71575;49.908;18.356;2024-01-16T09:59:17;5.43;;;1.88;;
82022;SDS011;71575;49.908;18.356;2024-01-16T10:02:18;4.78;;;0.50;;
82022;SDS011;71575;49.908;18.356;2024-01-16T10:05:19;4.28;;;0.68;;
82022;SDS011;71575;49.908;18.356;2024-01-16T10:08:22;3.50;;;0.35;;
82022;SDS011;71575;49.908;18.356;2024-01-16T10:11:23;3.65;;;0.60;;
82022;SDS011;71575;49.908;18.356;2024-01-16T10:14:24;3.75;;;0.60;;
82022;SDS011;71575;49.908;18.356;2024-01-16T10:20:38;2.83;;;0.70;;
82022;SDS011;71575;49.908;18.356;2024-01-16T10:23:39;3.50;;;0.65;;
82022;SDS011;71575;49.908;18.356;2024-01-16T10:26:39;5.00;;;0.47;;
82022;SDS011;71575;49.908;18.356;2024-01-16T10:29:56;4.78;;;0.52;;
82022;SDS011;71575;49.908;18.356;2024-01-16T10:33:11;2.83;;;0.40;;
82022;SDS011;71575;49.908;18.356;2024-01-16T10:36:14;3.15;;;0.85;;
82022;SDS011;71575;49.908;18.356;2024-01-16T10:39:17;3.75;;;0.80;;
82022;SDS011;71575;49.908;18.356;2024-01-16T10:42:20;5.38;;;1.73;;
82022;SDS011;71575;49.908;18.356;2024-01-16T10:45:27;3.83;;;0.93;;
82022;SDS011;71575;49.908;18.356;2024-01-16T10:48:37;5.78;;;1.58;;
82022;SDS011;71575;49.908;18.356;2024-01-16T10:51:39;4.78;;;1.15;;
82022;SDS011;71575;49.908;18.356;2024-01-16T10:54:43;6.30;;;0.88;;
82022;SDS011;71575;49.908;18.356;2024-01-16T10:57:44;5.30;;;1.02;;
82022;SDS011;71575;49.908;18.356;2024-01-16T11:00:45;5.75;;;1.60;;
82022;SDS011;71575;49.908;18.356;2024-01-16T11:03:47;5.70;;;1.08;;
82022;SDS011;71575;49.908;18.356;2024-01-16T11:06:51;6.40;;;0.80;;
82022;SDS011;71575;49.908;18.356;2024-01-16T11:09:53;6.90;;;1.45;;
82022;SDS011;71575;49.908;18.356;2024-01-16T11:13:02;6.30;;;1.02;;
82022;SDS011;71575;49.908;18.356;2024-01-16T11:16:05;4.30;;;0.75;;
82022;SDS011;71575;49.908;18.356;2024-01-16T11:19:07;5.13;;;1.15;;
82022;SDS011;71575;49.908;18.356;2024-01-16T11:22:15;4.75;;;1.05;;
82022;SDS011;71575;49.908;18.356;2024-01-16T11:25:18;3.55;;;0.73;;
82022;SDS011;71575;49.908;18.356;2024-01-16T11:28:19;5.47;;;1.23;;
82022;SDS011;71575;49.908;18.356;2024-01-16T11:31:32;5.30;;;0.63;;
82022;SDS011;71575;49.908;18.356;2024-01-16T11:37:41;4.35;;;0.80;;
82022;SDS011;71575;49.908;18.356;2024-01-16T11:40:42;5.03;;;0.65;;
82022;SDS011;71575;49.908;18.356;2024-01-16T11:43:43;4.40;;;0.60;;
82022;SDS011;71575;49.908;18.356;2024-01-16T11:47:02;3.80;;;0.88;;
82022;SDS011;71575;49.908;18.356;2024-01-16T11:50:10;3.67;;;0.65;;
82022;SDS011;71575;49.908;18.356;2024-01-16T11:56:41;5.20;;;0.95;;
82022;SDS011;71575;49.908;18.356;2024-01-16T12:03:02;4.35;;;0.50;;
82022;SDS011;71575;49.908;18.356;2024-01-16T12:06:08;4.05;;;0.70;;
82022;SDS011;71575;49.908;18.356;2024-01-16T12:12:14;4.57;;;0.55;;
82022;SDS011;71575;49.908;18.356;2024-01-16T12:15:19;8.25;;;2.78;;
82022;SDS011;71575;49.908;18.356;2024-01-16T12:18:21;5.45;;;0.82;;
82022;SDS011;71575;49.908;18.356;2024-01-16T12:21:42;6.45;;;1.10;;
82022;SDS011;71575;49.908;18.356;2024-01-16T12:24:58;7.75;;;2.15;;
82022;SDS011;71575;49.908;18.356;2024-01-16T12:28:14;9.23;;;3.22;;
82022;SDS011;71575;49.908;18.356;2024-01-16T12:31:29;7.90;;;1.88;;
82022;SDS011;71575;49.908;18.356;2024-01-16T12:34:46;7.35;;;2.25;;
82022;SDS011;71575;49.908;18.356;2024-01-16T12:38:07;8.10;;;2.28;;
82022;SDS011;71575;49.908;18.356;2024-01-16T12:41:23;9.40;;;2.55;;
82022;SDS011;71575;49.908;18.356;2024-01-16T12:44:39;11.45;;;3.60;;
82022;SDS011;71575;49.908;18.356;2024-01-16T12:47:55;11.10;;;3.72;;
82022;SDS011;71575;49.908;18.356;2024-01-16T12:51:10;7.53;;;2.00;;
82022;SDS011;71575;49.908;18.356;2024-01-16T12:54:26;6.18;;;1.88;;
82022;SDS011;71575;49.908;18.356;2024-01-16T12:57:41;4.50;;;0.70;;
82022;SDS011;71575;49.908;18.356;2024-01-16T13:00:57;4.07;;;0.60;;
82022;SDS011;71575;49.908;18.356;2024-01-16T13:04:12;4.13;;;0.63;;
82022;SDS011;71575;49.908;18.356;2024-01-16T13:07:28;2.78;;;0.20;;
82022;SDS011;71575;49.908;18.356;2024-01-16T13:10:43;4.55;;;0.70;;
82022;SDS011;71575;49.908;18.356;2024-01-16T13:14:03;4.32;;;0.50;;
82022;SDS011;71575;49.908;18.356;2024-01-16T13:17:18;4.13;;;0.68;;
82022;SDS011;71575;49.908;18.356;2024-01-16T13:20:34;4.13;;;0.52;;
82022;SDS011;71575;49.908;18.356;2024-01-16T13:23:49;4.07;;;0.73;;
82022;SDS011;71575;49.908;18.356;2024-01-16T13:27:05;2.92;;;0.35;;
82022;SDS011;71575;49.908;18.356;2024-01-16T13:30:20;4.25;;;0.80;;
82022;SDS011;71575;49.908;18.356;2024-01-16T13:33:36;3.50;;;0.80;;
82022;SDS011;71575;49.908;18.356;2024-01-16T13:36:51;2.88;;;0.52;;
82022;SDS011;71575;49.908;18.356;2024-01-16T13:40:10;3.78;;;0.50;;
82022;SDS011;71575;49.908;18.356;2024-01-16T13:43:25;4.35;;;0.47;;
82022;SDS011;71575;49.908;18.356;2024-01-16T13:46:41;5.80;;;0.93;;
82022;SDS011;71575;49.908;18.356;2024-01-16T13:49:56;5.25;;;0.82;;
82022;SDS011;71575;49.908;18.356;2024-01-16T13:53:11;2.72;;;0.20;;
82022;SDS011;71575;49.908;18.356;2024-01-16T13:56:27;3.45;;;0.30;;
82022;SDS011;71575;49.908;18.356;2024-01-16T13:59:42;3.80;;;0.90;;
82022;SDS011;71575;49.908;18.356;2024-01-16T14:02:59;4.00;;;0.82;;
82022;SDS011;71575;49.908;18.356;2024-01-16T14:06:14;4.75;;;0.88;;
82022;SDS011;71575;49.908;18.356;2024-01-16T14:09:33;4.97;;;1.48;;
82022;SDS011;71575;49.908;18.356;2024-01-16T14:12:52;4.18;;;0.73;;
82022;SDS011;71575;49.908;18.356;2024-01-16T14:16:07;4.88;;;0.82;;
82022;SDS011;71575;49.908;18.356;2024-01-16T14:19:23;5.18;;;0.85;;
82022;SDS011;71575;49.908;18.356;2024-01-16T14:22:38;5.85;;;0.95;;
82022;SDS011;71575;49.908;18.356;2024-01-16T14:25:54;6.68;;;1.15;;
82022;SDS011;71575;49.908;18.356;2024-01-16T14:29:10;3.63;;;0.50;;
82022;SDS011;71575;49.908;18.356;2024-01-16T14:32:25;6.85;;;0.50;;
82022;SDS011;71575;49.908;18.356;2024-01-16T14:35:40;5.07;;;1.00;;
82022;SDS011;71575;49.908;18.356;2024-01-16T14:38:57;4.05;;;0.60;;
82022;SDS011;71575;49.908;18.356;2024-01-16T14:42:15;4.47;;;1.80;;
82022;SDS011;71575;49.908;18.356;2024-01-16T14:45:31;6.00;;;1.95;;
82022;SDS011;71575;49.908;18.356;2024-01-16T14:48:46;7.97;;;2.42;;
82022;SDS011;71575;49.908;18.356;2024-01-16T14:52:04;9.60;;;2.95;;
82022;SDS011;71575;49.908;18.356;2024-01-16T14:55:20;14.52;;;4.43;;
82022;SDS011;71575;49.908;18.356;2024-01-16T14:58:35;11.88;;;5.13;;
82022;SDS011;71575;49.908;18.356;2024-01-16T15:01:51;7.70;;;2.00;;
82022;SDS011;71575;49.908;18.356;2024-01-16T15:05:07;5.00;;;1.00;;
82022;SDS011;71575;49.908;18.356;2024-01-16T15:08:23;5.32;;;1.17;;
82022;SDS011;71575;49.908;18.356;2024-01-16T15:11:38;3.80;;;0.63;;
82022;SDS011;71575;49.908;18.356;2024-01-16T15:14:54;4.90;;;0.63;;
82022;SDS011;71575;49.908;18.356;2024-01-16T15:18:09;6.18;;;0.70;;
82022;SDS011;71575;49.908;18.356;2024-01-16T15:21:24;5.10;;;0.88;;
82022;SDS011;71575;49.908;18.356;2024-01-16T15:24:41;5.50;;;1.00;;
82022;SDS011;71575;49.908;18.356;2024-01-16T15:27:57;5.63;;;0.68;;
82022;SDS011;71575;49.908;18.356;2024-01-16T15:31:12;5.07;;;1.38;;
82022;SDS011;71575;49.908;18.356;2024-01-16T15:34:27;7.53;;;2.03;;
82022;SDS011;71575;49.908;18.356;2024-01-16T15:37:43;6.65;;;1.27;;
82022;SDS011;71575;49.908;18.356;2024-01-16T15:40:58;7.70;;;1.30;;
82022;SDS011;71575;49.908;18.356;2024-01-16T15:44:14;9.02;;;2.50;;
82022;SDS011;71575;49.908;18.356;2024-01-16T15:47:29;8.60;;;3.30;;
82022;SDS011;71575;49.908;18.356;2024-01-16T15:51:15;13.43;;;5.22;;
82022;SDS011;71575;49.908;18.356;2024-01-16T15:54:16;12.82;;;5.20;;
82022;SDS011;71575;49.908;18.356;2024-01-16T16:00:17;16.20;;;6.95;;
82022;SDS011;71575;49.908;18.356;2024-01-16T16:06:18;35.33;;;12.52;;
82022;SDS011;71575;49.908;18.356;2024-01-16T16:09:19;14.43;;;4.75;;
82022;SDS011;71575;49.908;18.356;2024-01-16T16:15:20;20.60;;;7.63;;
82022;SDS011;71575;49.908;18.356;2024-01-16T16:18:22;14.07;;;4.43;;
82022;SDS011;71575;49.908;18.356;2024-01-16T16:24:24;9.30;;;3.75;;
82022;SDS011;71575;49.908;18.356;2024-01-16T16:30:26;12.02;;;3.90;;
82022;SDS011;71575;49.908;18.356;2024-01-16T16:36:27;15.73;;;6.22;;
82022;SDS011;71575;49.908;18.356;2024-01-16T16:39:28;15.57;;;5.90;;
82022;SDS011;71575;49.908;18.356;2024-01-16T16:45:31;15.95;;;6.57;;
82022;SDS011;71575;49.908;18.356;2024-01-16T16:51:32;15.43;;;6.80;;
82022;SDS011;71575;49.908;18.356;2024-01-16T16:57:33;10.23;;;4.72;;
82022;SDS011;71575;49.908;18.356;2024-01-16T17:03:35;12.88;;;4.60;;
82022;SDS011;71575;49.908;18.356;2024-01-16T17:06:36;13.45;;;8.02;;
82022;SDS011;71575;49.908;18.356;2024-01-16T17:09:36;19.77;;;8.10;;
82022;SDS011;71575;49.908;18.356;2024-01-16T17:15:38;15.25;;;6.97;;
82022;SDS011;71575;49.908;18.356;2024-01-16T17:21:40;20.38;;;7.63;;
82022;SDS011;71575;49.908;18.356;2024-01-16T17:27:41;26.15;;;9.45;;
82022;SDS011;71575;49.908;18.356;2024-01-16T17:30:42;18.80;;;9.10;;
82022;SDS011;71575;49.908;18.356;2024-01-16T17:33:42;18.52;;;7.40;;
82022;SDS011;71575;49.908;18.356;2024-01-16T17:39:44;17.00;;;8.35;;
82022;SDS011;71575;49.908;18.356;2024-01-16T17:42:44;17.02;;;8.70;;
82022;SDS011;71575;49.908;18.356;2024-01-16T17:48:45;17.38;;;8.20;;
82022;SDS011;71575;49.908;18.356;2024-01-16T17:51:47;15.23;;;6.55;;
82022;SDS011;71575;49.908;18.356;2024-01-16T17:57:53;16.65;;;7.60;;
82022;SDS011;71575;49.908;18.356;2024-01-16T18:03:57;23.23;;;11.95;;
82022;SDS011;71575;49.908;18.356;2024-01-16T18:06:58;26.48;;;14.70;;
82022;SDS011;71575;49.908;18.356;2024-01-16T18:09:59;33.08;;;17.15;;
82022;SDS011;71575;49.908;18.356;2024-01-16T18:13:00;39.55;;;19.63;;
82022;SDS011;71575;49.908;18.356;2024-01-16T18:16:00;27.77;;;14.80;;
82022;SDS011;71575;49.908;18.356;2024-01-16T18:22:03;34.25;;;17.88;;
82022;SDS011;71575;49.908;18.356;2024-01-16T18:25:04;34.97;;;19.95;;
82022;SDS011;71575;49.908;18.356;2024-01-16T18:28:06;41.20;;;19.42;;
82022;SDS011;71575;49.908;18.356;2024-01-16T18:31:07;43.72;;;21.38;;
82022;SDS011;71575;49.908;18.356;2024-01-16T18:37:08;45.05;;;21.02;;
82022;SDS011;71575;49.908;18.356;2024-01-16T18:43:10;53.42;;;20.75;;
82022;SDS011;71575;49.908;18.356;2024-01-16T18:46:14;45.22;;;20.77;;
82022;SDS011;71575;49.908;18.356;2024-01-16T18:49:15;48.00;;;19.23;;
82022;SDS011;71575;49.908;18.356;2024-01-16T18:52:16;30.65;;;15.40;;
82022;SDS011;71575;49.908;18.356;2024-01-16T18:55:17;32.70;;;16.98;;
82022;SDS011;71575;49.908;18.356;2024-01-16T18:58:18;29.08;;;14.40;;
82022;SDS011;71575;49.908;18.356;2024-01-16T19:01:23;26.48;;;12.63;;
82022;SDS011;71575;49.908;18.356;2024-01-16T19:04:24;27.92;;;14.90;;
82022;SDS011;71575;49.908;18.356;2024-01-16T19:10:25;26.15;;;13.55;;
82022;SDS011;71575;49.908;18.356;2024-01-16T19:13:26;22.55;;;11.57;;
82022;SDS011;71575;49.908;18.356;2024-01-16T19:16:30;25.60;;;14.70;;
82022;SDS011;71575;49.908;18.356;2024-01-16T19:19:31;28.92;;;13.38;;
82022;SDS011;71575;49.908;18.356;2024-01-16T19:22:34;37.20;;;22.08;;
82022;SDS011;71575;49.908;18.356;2024-01-16T19:25:36;27.60;;;11.70;;
82022;SDS011;71575;49.908;18.356;2024-01-16T19:28:37;27.00;;;15.50;;
82022;SDS011;71575;49.908;18.356;2024-01-16T19:34:38;21.75;;;9.82;;
82022;SDS011;71575;49.908;18.356;2024-01-16T19:37:42;20.48;;;10.02;;
82022;SDS011;71575;49.908;18.356;2024-01-16T19:40:43;20.52;;;10.65;;
82022;SDS011;71575;49.908;18.356;2024-01-16T19:43:45;18.15;;;9.48;;
82022;SDS011;71575;49.908;18.356;2024-01-16T19:46:45;17.48;;;8.30;;